| time (UTC) | temp F | wind direction | speed MPH | gust MPH | rain 1hr in | rain 24hr in | rain mn in | humidity % | barometer mb |
| 20260504173804 | 0 | 147 | 255.0 | 0.0 | 0.00 | 0.00 | 0.00 | ||
| 20260504173758 | 64 | 236 | 6.0 | 15.0 | 0.00 | 0.00 | 0.00 | 44 | 1011.2 |
| 20260504173258 | 63 | 251 | 6.0 | 12.0 | 0.00 | 0.00 | 0.00 | 45 | 1011.3 |
| 20260504172758 | 63 | 180 | 7.0 | 13.0 | 0.00 | 0.00 | 0.00 | 45 | 1011.4 |
| 20260504172257 | 63 | 219 | 6.0 | 12.0 | 0.00 | 0.00 | 0.00 | 43 | 1011.4 |
| 20260504171757 | 63 | 245 | 6.0 | 13.0 | 0.00 | 0.00 | 0.00 | 43 | 1011.5 |
| 20260504171257 | 63 | 217 | 6.0 | 14.0 | 0.00 | 0.00 | 0.00 | 43 | 1011.5 |
| 20260504170801 | 0 | 147 | 255.0 | 0.0 | 0.00 | 0.00 | 0.00 | ||
| 20260504170756 | 63 | 242 | 7.0 | 13.0 | 0.00 | 0.00 | 0.00 | 44 | 1011.8 |
| 20260504170256 | 62 | 227 | 7.0 | 15.0 | 0.00 | 0.00 | 0.00 | 45 | 1011.8 |
| 20260504160253 | 60 | 149 | 7.0 | 14.0 | 0.00 | 0.00 | 0.00 | 42 | 1012.4 |
| 20260504150755 | 0 | 147 | 255.0 | 0.0 | 0.00 | 0.00 | 0.00 | ||
| 20260504150749 | 58 | 185 | 5.0 | 12.0 | 0.00 | 0.00 | 0.00 | 42 | 1013.1 |
| 20260504150249 | 58 | 194 | 5.0 | 13.0 | 0.00 | 0.00 | 0.00 | 44 | 1013.0 |
| 20260504141246 | 56 | 200 | 6.0 | 11.0 | 0.00 | 0.00 | 0.00 | 44 | 1013.3 |
| 20260504140751 | 0 | 147 | 255.0 | 0.0 | 0.00 | 0.00 | 0.00 | ||
| 20260504140746 | 56 | 214 | 5.0 | 13.0 | 0.00 | 0.00 | 0.00 | 44 | 1013.3 |
| 20260504140245 | 56 | 214 | 5.0 | 11.0 | 0.00 | 0.00 | 0.00 | 45 | 1013.3 |
| 20260504130747 | 0 | 147 | 255.0 | 0.0 | 0.00 | 0.00 | 0.00 | ||
| 20260504130742 | 52 | 223 | 6.0 | 13.0 | 0.00 | 0.00 | 0.00 | 50 | 1013.5 |
| 20260504110236 | 44 | 232 | 3.0 | 7.0 | 0.00 | 0.00 | 0.00 | 60 | 1013.8 |
| 20260504100232 | 43 | 200 | 3.0 | 7.0 | 0.00 | 0.00 | 0.00 | 63 | 1013.7 |
| 20260504081726 | 42 | 234 | 3.0 | 7.0 | 0.00 | 0.00 | 0.00 | 64 | 1014.0 |
| 20260504081225 | 42 | 239 | 3.0 | 6.0 | 0.00 | 0.00 | 0.00 | 64 | 1013.9 |
| 20260504080730 | 0 | 147 | 255.0 | 0.0 | 0.00 | 0.00 | 0.00 | ||
| 20260504080726 | 42 | 218 | 2.0 | 6.0 | 0.00 | 0.00 | 0.00 | 64 | 1013.9 |
| 20260504070224 | 44 | 224 | 3.0 | 6.0 | 0.00 | 0.00 | 0.00 | 61 | 1013.9 |
| 20260504060218 | 44 | 257 | 4.0 | 9.0 | 0.00 | 0.00 | 0.00 | 59 | 1013.9 |
| 20260504050719 | 0 | 147 | 255.0 | 0.0 | 0.00 | 0.00 | 0.00 | ||
| 20260504050715 | 45 | 238 | 4.0 | 7.0 | 0.00 | 0.00 | 0.00 | 59 | 1013.9 |
| 20260504045714 | 45 | 245 | 4.0 | 13.0 | 0.00 | 0.00 | 0.00 | 59 | 1013.9 |
| 20260504045219 | 0 | 147 | 255.0 | 0.0 | 0.00 | 0.00 | 0.00 | ||
| 20260504045214 | 45 | 254 | 4.0 | 9.0 | 0.00 | 0.00 | 0.00 | 59 | 1013.9 |
| 20260504044714 | 45 | 265 | 4.0 | 8.0 | 0.00 | 0.00 | 0.00 | 59 | 1013.9 |
| 20260504044214 | 45 | 246 | 4.0 | 9.0 | 0.00 | 0.00 | 0.00 | 59 | 1013.9 |
| 20260504043718 | 0 | 147 | 255.0 | 0.0 | 0.00 | 0.00 | 0.00 | ||
| 20260504043713 | 45 | 229 | 4.0 | 10.0 | 0.00 | 0.00 | 0.00 | 59 | 1013.8 |
| 20260504043213 | 45 | 250 | 4.0 | 9.0 | 0.00 | 0.00 | 0.00 | 59 | 1013.8 |
| 20260504042217 | 0 | 147 | 255.0 | 0.0 | 0.00 | 0.00 | 0.00 | ||
| 20260504042212 | 45 | 217 | 4.0 | 7.0 | 0.00 | 0.00 | 0.00 | 58 | 1013.8 |
| 20260504041712 | 45 | 257 | 4.0 | 8.0 | 0.00 | 0.00 | 0.00 | 57 | 1013.7 |
| 20260504041211 | 46 | 257 | 3.0 | 7.0 | 0.00 | 0.00 | 0.00 | 57 | 1013.7 |
| 20260504040716 | 0 | 147 | 255.0 | 0.0 | 0.00 | 0.00 | 0.00 | ||
| 20260504040711 | 46 | 260 | 4.0 | 11.0 | 0.00 | 0.00 | 0.00 | 56 | 1013.6 |
| 20260504040211 | 46 | 213 | 3.0 | 8.0 | 0.00 | 0.00 | 0.00 | 56 | 1013.7 |
| 20260504035711 | 46 | 248 | 3.0 | 6.0 | 0.00 | 0.00 | 0.00 | 56 | 1013.7 |
| 20260504035215 | 0 | 147 | 255.0 | 0.0 | 0.00 | 0.00 | 0.00 | ||
| 20260504035210 | 46 | 209 | 3.0 | 9.0 | 0.00 | 0.00 | 0.00 | 56 | 1013.6 |
| 20260504034710 | 46 | 263 | 2.0 | 6.0 | 0.00 | 0.00 | 0.00 | 56 | 1013.5 |
| 20260504034210 | 46 | 274 | 3.0 | 8.0 | 0.00 | 0.00 | 0.00 | 56 | 1013.5 |
| 20260504033709 | 46 | 250 | 3.0 | 6.0 | 0.00 | 0.00 | 0.00 | 55 | 1013.5 |
| 20260504033209 | 46 | 236 | 3.0 | 9.0 | 0.00 | 0.00 | 0.00 | 55 | 1013.4 |
| 20260504032709 | 46 | 263 | 3.0 | 8.0 | 0.00 | 0.00 | 0.00 | 55 | 1013.4 |
| 20260504032213 | 0 | 147 | 255.0 | 0.0 | 0.00 | 0.00 | 0.00 | ||
| 20260504032209 | 46 | 243 | 3.0 | 8.0 | 0.00 | 0.00 | 0.00 | 55 | 1013.5 |
| 20260504031708 | 46 | 261 | 3.0 | 4.0 | 0.00 | 0.00 | 0.00 | 55 | 1013.5 |
| 20260504031208 | 46 | 285 | 3.0 | 8.0 | 0.00 | 0.00 | 0.00 | 55 | 1013.4 |
| 20260504030713 | 0 | 147 | 255.0 | 0.0 | 0.00 | 0.00 | 0.00 | ||
| 20260504030708 | 46 | 240 | 3.0 | 8.0 | 0.00 | 0.00 | 0.00 | 55 | 1013.4 |
| 20260504030207 | 46 | 246 | 3.0 | 7.0 | 0.00 | 0.00 | 0.00 | 55 | 1013.4 |
| 20260504025707 | 46 | 234 | 3.0 | 7.0 | 0.00 | 0.00 | 0.00 | 55 | 1013.4 |
| 20260504025213 | 0 | 147 | 255.0 | 0.0 | 0.00 | 0.00 | 0.00 | ||
| 20260504025207 | 46 | 234 | 3.0 | 6.0 | 0.00 | 0.00 | 0.00 | 54 | 1013.4 |
| 20260504024706 | 46 | 242 | 3.0 | 6.0 | 0.00 | 0.00 | 0.00 | 54 | 1013.5 |
| 20260504024206 | 46 | 246 | 2.0 | 5.0 | 0.00 | 0.00 | 0.00 | 54 | 1013.5 |
| 20260504023711 | 0 | 147 | 255.0 | 0.0 | 0.00 | 0.00 | 0.00 | ||
| 20260504023706 | 46 | 250 | 2.0 | 4.0 | 0.00 | 0.00 | 0.00 | 54 | 1013.4 |
| 20260504022705 | 47 | 248 | 2.0 | 4.0 | 0.00 | 0.00 | 0.00 | 53 | 1013.6 |
| 20260504022210 | 0 | 147 | 255.0 | 0.0 | 0.00 | 0.00 | 0.00 | ||
| 20260504022205 | 47 | 253 | 2.0 | 6.0 | 0.00 | 0.00 | 0.00 | 52 | 1013.6 |
| 20260504021705 | 47 | 252 | 3.0 | 8.0 | 0.00 | 0.00 | 0.00 | 51 | 1013.6 |
| 20260504021205 | 47 | 254 | 3.0 | 8.0 | 0.00 | 0.00 | 0.00 | 51 | 1013.6 |
| 20260504020709 | 0 | 147 | 255.0 | 0.0 | 0.00 | 0.00 | 0.00 | ||
| 20260504020704 | 47 | 254 | 2.0 | 6.0 | 0.00 | 0.00 | 0.00 | 51 | 1013.6 |
| 20260504020204 | 48 | 228 | 3.0 | 7.0 | 0.00 | 0.00 | 0.00 | 51 | 1013.5 |
| 20260504015704 | 48 | 254 | 3.0 | 7.0 | 0.00 | 0.00 | 0.00 | 50 | 1013.5 |
| 20260504015209 | 0 | 147 | 255.0 | 0.0 | 0.00 | 0.00 | 0.00 | ||
| 20260504015203 | 48 | 280 | 3.0 | 7.0 | 0.00 | 0.00 | 0.00 | 50 | 1013.5 |
| 20260504014703 | 48 | 215 | 3.0 | 7.0 | 0.00 | 0.00 | 0.00 | 50 | 1013.5 |
| 20260504014203 | 48 | 242 | 3.0 | 6.0 | 0.00 | 0.00 | 0.00 | 50 | 1013.4 |
| 20260504013707 | 0 | 147 | 255.0 | 0.0 | 0.00 | 0.00 | 0.00 | ||
| 20260504013702 | 49 | 244 | 4.0 | 8.0 | 0.00 | 0.00 | 0.00 | 49 | 1013.4 |
| 20260504013202 | 49 | 223 | 5.0 | 9.0 | 0.00 | 0.00 | 0.00 | 48 | 1013.4 |
| 20260504012702 | 50 | 235 | 5.0 | 10.0 | 0.00 | 0.00 | 0.00 | 48 | 1013.3 |
| 20260504012206 | 0 | 147 | 255.0 | 0.0 | 0.00 | 0.00 | 0.00 | ||
| 20260504012202 | 50 | 281 | 5.0 | 12.0 | 0.00 | 0.00 | 0.00 | 47 | 1013.3 |
| 20260504011701 | 50 | 252 | 4.0 | 10.0 | 0.00 | 0.00 | 0.00 | 47 | 1013.3 |
| 20260504011201 | 49 | 256 | 4.0 | 10.0 | 0.00 | 0.00 | 0.00 | 48 | 1013.3 |
| 20260504010706 | 0 | 147 | 255.0 | 0.0 | 0.00 | 0.00 | 0.00 | ||
| 20260504010701 | 49 | 276 | 4.0 | 9.0 | 0.00 | 0.00 | 0.00 | 47 | 1013.2 |
| 20260504010200 | 50 | 244 | 3.0 | 10.0 | 0.00 | 0.00 | 0.00 | 47 | 1013.2 |
| 20260504005700 | 50 | 248 | 3.0 | 9.0 | 0.00 | 0.00 | 0.00 | 47 | 1013.1 |
| 20260504005205 | 0 | 147 | 255.0 | 0.0 | 0.00 | 0.00 | 0.00 | ||
| 20260504005202 | 50 | 226 | 4.0 | 10.0 | 0.00 | 0.00 | 0.00 | 47 | 1013.1 |
| 20260504004700 | 50 | 284 | 3.0 | 8.0 | 0.00 | 0.00 | 0.00 | 46 | 1013.1 |
| 20260504004159 | 50 | 248 | 4.0 | 10.0 | 0.00 | 0.00 | 0.00 | 46 | 1013.0 |
| 20260504003704 | 0 | 147 | 255.0 | 0.0 | 0.00 | 0.00 | 0.00 | ||
| 20260504003659 | 50 | 245 | 4.0 | 8.0 | 0.00 | 0.00 | 0.00 | 45 | 1012.9 |
| 20260504003159 | 50 | 245 | 4.0 | 10.0 | 0.00 | 0.00 | 0.00 | 45 | 1012.9 |
| 20260504002658 | 50 | 276 | 3.0 | 8.0 | 0.00 | 0.00 | 0.00 | 46 | 1012.8 |
| 20260504002200 | 50 | 242 | 3.0 | 10.0 | 0.00 | 0.00 | 0.00 | 45 | 1012.7 |
| 20260504001658 | 50 | 264 | 3.0 | 5.0 | 0.00 | 0.00 | 0.00 | 45 | 1012.7 |
| 20260504001158 | 50 | 294 | 3.0 | 5.0 | 0.00 | 0.00 | 0.00 | 45 | 1012.7 |
| 20260504000702 | 0 | 147 | 255.0 | 0.0 | 0.00 | 0.00 | 0.00 | ||
| 20260504000657 | 51 | 250 | 3.0 | 7.0 | 0.00 | 0.00 | 0.00 | 44 | 1012.8 |
| 20260504000157 | 51 | 261 | 3.0 | 6.0 | 0.00 | 0.00 | 0.00 | 44 | 1012.7 |
| 20260503235657 | 51 | 263 | 2.0 | 6.0 | 0.00 | 0.00 | 0.00 | 44 | 1012.7 |
| 20260503235201 | 0 | 147 | 255.0 | 0.0 | 0.00 | 0.00 | 0.00 | ||
| 20260503234656 | 51 | 243 | 3.0 | 10.0 | 0.00 | 0.00 | 0.00 | 44 | 1012.5 |
| 20260503234158 | 52 | 344 | 4.0 | 11.0 | 0.00 | 0.00 | 0.00 | 43 | 1012.5 |
| 20260503233700 | 0 | 147 | 255.0 | 0.0 | 0.00 | 0.00 | 0.00 | ||
| 20260503233655 | 52 | 311 | 3.0 | 13.0 | 0.00 | 0.00 | 0.00 | 43 | 1012.5 |
| 20260503233155 | 52 | 271 | 4.0 | 7.0 | 0.00 | 0.00 | 0.00 | 43 | 1012.4 |
| 20260503232655 | 52 | 255 | 4.0 | 11.0 | 0.00 | 0.00 | 0.00 | 42 | 1012.4 |
| 20260503232157 | 52 | 332 | 4.0 | 10.0 | 0.00 | 0.00 | 0.00 | 42 | 1012.3 |
| 20260503231654 | 52 | 233 | 4.0 | 15.0 | 0.00 | 0.00 | 0.00 | 42 | 1012.3 |
| 20260503231154 | 52 | 215 | 3.0 | 10.0 | 0.00 | 0.00 | 0.00 | 42 | 1012.3 |
| 20260503230659 | 0 | 147 | 255.0 | 0.0 | 0.00 | 0.00 | 0.00 | ||
| 20260503230654 | 53 | 276 | 4.0 | 9.0 | 0.00 | 0.00 | 0.00 | 43 | 1012.4 |
| 20260503230153 | 53 | 212 | 4.0 | 15.0 | 0.00 | 0.00 | 0.00 | 42 | 1012.3 |
| 20260503225653 | 53 | 181 | 3.0 | 9.0 | 0.00 | 0.00 | 0.00 | 42 | 1012.2 |
| 20260503225158 | 0 | 147 | 255.0 | 0.0 | 0.00 | 0.00 | 0.00 | ||
| 20260503224653 | 54 | 277 | 4.0 | 10.0 | 0.00 | 0.00 | 0.00 | 40 | 1012.1 |
| 20260503224152 | 54 | 5 | 4.0 | 14.0 | 0.00 | 0.00 | 0.00 | 40 | 1012.2 |
| 20260503223657 | 0 | 147 | 255.0 | 0.0 | 0.00 | 0.00 | 0.00 | ||
| 20260503223652 | 54 | 300 | 4.0 | 12.0 | 0.00 | 0.00 | 0.00 | 41 | 1012.1 |
| 20260503223152 | 54 | 264 | 4.0 | 11.0 | 0.00 | 0.00 | 0.00 | 41 | 1012.1 |
| 20260503222651 | 54 | 312 | 4.0 | 10.0 | 0.00 | 0.00 | 0.00 | 40 | 1012.1 |
| 20260503222158 | 0 | 147 | 255.0 | 0.0 | 0.00 | 0.00 | 0.00 | ||
| 20260503222151 | 54 | 222 | 3.0 | 13.0 | 0.00 | 0.00 | 0.00 | 40 | 1012.1 |
| 20260503221651 | 54 | 248 | 3.0 | 4.0 | 0.00 | 0.00 | 0.00 | 41 | 1012.2 |
| 20260503221151 | 54 | 96 | 4.0 | 9.0 | 0.00 | 0.00 | 0.00 | 41 | 1012.1 |
| 20260503220655 | 0 | 147 | 255.0 | 0.0 | 0.00 | 0.00 | 0.00 | ||
| 20260503220650 | 54 | 244 | 5.0 | 9.0 | 0.00 | 0.00 | 0.00 | 40 | 1012.1 |
| 20260503220150 | 55 | 148 | 5.0 | 15.0 | 0.00 | 0.00 | 0.00 | 39 | 1012.3 |
| 20260503215650 | 55 | 261 | 5.0 | 10.0 | 0.00 | 0.00 | 0.00 | 38 | 1012.1 |
| 20260503215154 | 0 | 147 | 255.0 | 0.0 | 0.00 | 0.00 | 0.00 | ||
| 20260503215149 | 55 | 277 | 5.0 | 13.0 | 0.00 | 0.00 | 0.00 | 38 | 1012.2 |
| 20260503214649 | 56 | 311 | 4.0 | 9.0 | 0.00 | 0.00 | 0.00 | 38 | 1012.1 |
| 20260503214149 | 55 | 289 | 4.0 | 12.0 | 0.00 | 0.00 | 0.00 | 37 | 1012.1 |
| 20260503213653 | 0 | 147 | 255.0 | 0.0 | 0.00 | 0.00 | 0.00 | ||
| 20260503213148 | 54 | 242 | 5.0 | 16.0 | 0.00 | 0.00 | 0.00 | 39 | 1012.0 |
| 20260503212648 | 54 | 236 | 5.0 | 13.0 | 0.00 | 0.00 | 0.00 | 39 | 1011.9 |
| 20260503212152 | 0 | 147 | 255.0 | 0.0 | 0.00 | 0.00 | 0.00 | ||
| 20260503212148 | 54 | 336 | 6.0 | 11.0 | 0.00 | 0.00 | 0.00 | 38 | 1011.9 |
| 20260503211647 | 53 | 217 | 5.0 | 14.0 | 0.00 | 0.00 | 0.00 | 38 | 1012.0 |
| 20260503211147 | 53 | 313 | 5.0 | 10.0 | 0.00 | 0.00 | 0.00 | 38 | 1011.9 |
| 20260503210652 | 0 | 147 | 255.0 | 0.0 | 0.00 | 0.00 | 0.00 | ||
| 20260503210647 | 54 | 261 | 5.0 | 10.0 | 0.00 | 0.00 | 0.00 | 38 | 1011.9 |
| 20260503210146 | 54 | 71 | 5.0 | 20.0 | 0.00 | 0.00 | 0.00 | 38 | 1011.8 |
| 20260503205646 | 55 | 238 | 4.0 | 12.0 | 0.00 | 0.00 | 0.00 | 38 | 1011.8 |
| 20260503205152 | 0 | 147 | 255.0 | 0.0 | 0.00 | 0.00 | 0.00 | ||
| 20260503205146 | 54 | 261 | 5.0 | 9.0 | 0.00 | 0.00 | 0.00 | 38 | 1011.7 |
| 20260503204646 | 54 | 226 | 6.0 | 16.0 | 0.00 | 0.00 | 0.00 | 37 | 1011.8 |
| 20260503204145 | 53 | 246 | 5.0 | 12.0 | 0.00 | 0.00 | 0.00 | 37 | 1011.9 |
| 20260503203650 | 0 | 147 | 255.0 | 0.0 | 0.00 | 0.00 | 0.00 | ||
| 20260503203645 | 54 | 267 | 4.0 | 12.0 | 0.00 | 0.00 | 0.00 | 37 | 1012.0 |
| 20260503203145 | 53 | 318 | 5.0 | 9.0 | 0.00 | 0.00 | 0.00 | 37 | 1012.0 |
| 20260503202644 | 54 | 321 | 5.0 | 11.0 | 0.00 | 0.00 | 0.00 | 37 | 1012.0 |
| 20260503202144 | 55 | 251 | 6.0 | 19.0 | 0.00 | 0.00 | 0.00 | 37 | 1012.0 |
| 20260503201644 | 54 | 246 | 7.0 | 13.0 | 0.00 | 0.00 | 0.00 | 37 | 1011.9 |
| 20260503200643 | 54 | 247 | 5.0 | 11.0 | 0.00 | 0.00 | 0.00 | 38 | 1011.9 |
| 20260503200143 | 53 | 269 | 5.0 | 10.0 | 0.00 | 0.00 | 0.00 | 37 | 1012.2 |
| 20260503195643 | 53 | 266 | 6.0 | 15.0 | 0.00 | 0.00 | 0.00 | 36 | 1012.2 |
| 20260503195147 | 0 | 147 | 255.0 | 0.0 | 0.00 | 0.00 | 0.00 | ||
| 20260503195143 | 53 | 263 | 5.0 | 13.0 | 0.00 | 0.00 | 0.00 | 37 | 1012.3 |
| 20260503194642 | 54 | 277 | 5.0 | 12.0 | 0.00 | 0.00 | 0.00 | 37 | 1012.3 |
| 20260503194142 | 54 | 289 | 5.0 | 16.0 | 0.00 | 0.00 | 0.00 | 38 | 1012.4 |
| 20260503193646 | 0 | 147 | 255.0 | 0.0 | 0.00 | 0.00 | 0.00 | ||
| 20260503193642 | 54 | 34 | 4.0 | 12.0 | 0.00 | 0.00 | 0.00 | 37 | 1012.3 |
| 20260503193141 | 54 | 264 | 4.0 | 11.0 | 0.00 | 0.00 | 0.00 | 36 | 1012.5 |
| 20260503192641 | 54 | 298 | 4.0 | 11.0 | 0.00 | 0.00 | 0.00 | 38 | 1012.5 |
| 20260503192146 | 0 | 147 | 255.0 | 0.0 | 0.00 | 0.00 | 0.00 | ||
| 20260503192141 | 54 | 190 | 4.0 | 10.0 | 0.00 | 0.00 | 0.00 | 38 | 1012.6 |
| 20260503191640 | 53 | 257 | 5.0 | 11.0 | 0.00 | 0.00 | 0.00 | 39 | 1012.7 |
| 20260503191140 | 53 | 234 | 5.0 | 15.0 | 0.00 | 0.00 | 0.00 | 39 | 1012.8 |
| 20260503190645 | 0 | 147 | 255.0 | 0.0 | 0.00 | 0.00 | 0.00 | ||
| 20260503190640 | 53 | 308 | 5.0 | 12.0 | 0.00 | 0.00 | 0.00 | 39 | 1012.5 |
| 20260503190139 | 53 | 263 | 5.0 | 13.0 | 0.00 | 0.00 | 0.00 | 39 | 1012.6 |
| 20260503185639 | 53 | 21 | 6.0 | 13.0 | 0.00 | 0.00 | 0.00 | 39 | 1012.7 |
| 20260503185144 | 0 | 147 | 255.0 | 0.0 | 0.00 | 0.00 | 0.00 | ||
| 20260503185139 | 52 | 246 | 6.0 | 13.0 | 0.00 | 0.00 | 0.00 | 39 | 1012.6 |
| 20260503184639 | 52 | 325 | 6.0 | 16.0 | 0.00 | 0.00 | 0.00 | 38 | 1012.8 |
| 20260503184138 | 52 | 268 | 6.0 | 21.0 | 0.00 | 0.00 | 0.00 | 39 | 1012.8 |
| 20260503183643 | 0 | 147 | 255.0 | 0.0 | 0.00 | 0.00 | 0.00 | ||
| 20260503183638 | 52 | 311 | 5.0 | 16.0 | 0.00 | 0.00 | 0.00 | 40 | 1012.8 |
| 20260503183138 | 52 | 292 | 4.0 | 11.0 | 0.00 | 0.00 | 0.00 | 39 | 1012.9 |
| 20260503182638 | 51 | 325 | 5.0 | 15.0 | 0.00 | 0.00 | 0.00 | 40 | 1013.0 |
| 20260503182142 | 0 | 147 | 255.0 | 0.0 | 0.00 | 0.00 | 0.00 | ||
| 20260503182138 | 51 | 283 | 5.0 | 11.0 | 0.00 | 0.00 | 0.00 | 41 | 1013.0 |
| 20260503181637 | 52 | 46 | 5.0 | 15.0 | 0.00 | 0.00 | 0.00 | 40 | 1013.1 |
| 20260503181137 | 51 | 242 | 5.0 | 14.0 | 0.00 | 0.00 | 0.00 | 40 | 1012.9 |
| 20260503180641 | 0 | 147 | 255.0 | 0.0 | 0.00 | 0.00 | 0.00 | ||
| 20260503180636 | 51 | 5 | 6.0 | 16.0 | 0.00 | 0.00 | 0.00 | 42 | 1013.0 |
| 20260503180136 | 50 | 260 | 6.0 | 13.0 | 0.00 | 0.00 | 0.00 | 42 | 1013.0 |
| 20260503175636 | 50 | 271 | 6.0 | 15.0 | 0.00 | 0.00 | 0.00 | 40 | 1013.0 |
| 20260503175140 | 0 | 147 | 255.0 | 0.0 | 0.00 | 0.00 | 0.00 | ||
| 20260503175135 | 50 | 236 | 5.0 | 11.0 | 0.00 | 0.00 | 0.00 | 39 | 1013.1 |
| 20260503174636 | 51 | 81 | 5.0 | 12.0 | 0.00 | 0.00 | 0.00 | 39 | 1013.2 |